Terminal Aerodrome Forecast
Issued by NWS New Orleans/Baton Rouge, LA

Home | Current Version | Previous Version | Text Only | Print | Product List | Glossary On
Versions: 1 2 3 4 5 6 7 8 9 10 11 12 13 14 15 16 17 18 19 20 21 22 23 24 25 26 27
000
FTUS44 KLIX 261720
TAFBTR
TAF
KBTR 261720Z 2618/2718 19007KT P6SM SCT040
     FM270500 16007KT P6SM BKN030
     FM270700 16006KT 2SM BR BKN003
     FM271400 17008KT 3SM BR BKN010
     FM271600 18010KT P6SM BKN020=

USA.gov is the U.S. government's official web portal to all federal, state and local government web resources and services.